Time;durP1;ratioP1;P1;durP2;ratioP2;P2;SDS_P1;SDS_P2;PMS_P1;PMS_P2;Temp;Humidity;BMP_temperature;BMP_pressure;BME280_temperature;BME280_humidity;BME280_pressure;Samples;Min_cycle;Max_cycle;Signal;HPM_P1;HPM_P2
2023/07/05 00:00:45;;;;;;;7.72;4.50;;;;;;;18.41;72.15;100350.25;5051522;28;20445;-71
2023/07/05 00:03:11;;;;;;;8.98;4.55;;;;;;;18.36;72.06;100320.31;5052831;28;20048;-70
2023/07/05 00:05:37;;;;;;;7.85;4.15;;;;;;;18.38;71.69;100323.59;5051686;28;20078;-71
2023/07/05 00:08:03;;;;;;;5.50;4.03;;;;;;;18.39;71.96;100316.00;5051618;28;20025;-71
2023/07/05 00:10:28;;;;;;;6.68;4.32;;;;;;;18.36;71.99;100303.44;5053987;28;20070;-70
2023/07/05 00:12:53;;;;;;;6.15;3.90;;;;;;;18.36;72.17;100302.63;5072619;28;20438;-70
2023/07/05 00:15:19;;;;;;;4.68;3.55;;;;;;;18.37;71.70;100299.47;5071874;28;20458;-70
2023/07/05 00:17:44;;;;;;;6.53;3.97;;;;;;;18.35;72.11;100287.75;5071773;28;20036;-71
2023/07/05 00:20:10;;;;;;;5.13;3.63;;;;;;;18.34;72.36;100271.19;5070461;28;20020;-70
2023/07/05 00:22:36;;;;;;;4.40;3.58;;;;;;;18.31;72.25;100263.38;5071522;28;20036;-70
2023/07/05 00:25:02;;;;;;;6.85;3.40;;;;;;;18.27;72.28;100239.91;5071967;28;20021;-71
2023/07/05 00:27:28;;;;;;;4.72;3.45;;;;;;;18.30;72.22;100242.06;5083786;28;20044;-71
2023/07/05 00:29:53;;;;;;;5.93;3.72;;;;;;;18.27;72.13;100246.34;5063314;28;20044;-70
2023/07/05 00:32:20;;;;;;;5.50;3.90;;;;;;;18.32;72.52;100237.81;5051441;28;20555;-70
2023/07/05 00:34:45;;;;;;;4.40;3.35;;;;;;;18.31;71.90;100221.25;5050855;28;20397;-71
2023/07/05 00:37:10;;;;;;;6.03;3.63;;;;;;;18.21;72.44;100213.94;5051699;28;20033;-70
2023/07/05 00:39:36;;;;;;;5.70;3.60;;;;;;;18.20;72.42;100167.34;5051751;28;20028;-70
2023/07/05 00:42:02;;;;;;;6.07;3.80;;;;;;;18.23;72.36;100177.91;5052253;28;20107;-70
2023/07/05 00:44:27;;;;;;;5.30;3.40;;;;;;;18.11;72.87;100192.53;5091303;28;20038;-70
2023/07/05 00:46:58;;;;;;;5.03;2.78;;;;;;;18.11;72.64;100206.56;5085814;28;20020;-70
2023/07/05 00:49:26;;;;;;;4.82;3.53;;;;;;;18.01;73.05;100217.25;5065527;28;20522;-70
2023/07/05 00:52:11;;;;;;;4.40;2.85;;;;;;;18.07;72.87;100199.09;5071242;28;20423;-70
2023/07/05 00:54:46;;;;;;;6.60;3.30;;;;;;;18.04;73.51;100200.59;5069498;28;20086;-70
2023/07/05 00:57:20;;;;;;;5.00;2.95;;;;;;;18.05;73.25;100193.00;5072876;28;20055;-71
2023/07/05 01:00:03;;;;;;;6.60;3.30;;;;;;;18.08;72.75;100179.16;5091529;28;20032;-70
2023/07/05 01:02:30;;;;;;;5.45;3.10;;;;;;;18.09;73.23;100180.81;5090505;28;20020;-71
2023/07/05 01:04:56;;;;;;;6.63;3.38;;;;;;;17.98;73.62;100178.56;5082128;28;20020;-70
2023/07/05 01:07:22;;;;;;;6.55;3.10;;;;;;;17.91;73.61;100182.63;5070395;28;20059;-71
2023/07/05 01:09:47;;;;;;;6.15;3.38;;;;;;;17.88;74.20;100177.69;5070864;28;20016;-70
2023/07/05 01:12:28;;;;;;;5.45;3.42;;;;;;;17.84;74.04;100159.81;5071848;28;20474;-70
2023/07/05 01:15:07;;;;;;;4.68;3.20;;;;;;;17.81;74.17;100168.88;5090859;28;20086;-70
2023/07/05 01:17:51;;;;;;;4.25;3.15;;;;;;;17.84;74.82;100168.25;5090599;28;20392;-70
2023/07/05 01:20:44;;;;;;;4.18;3.00;;;;;;;17.93;73.97;100162.69;5090536;28;20382;-71
2023/07/05 01:23:12;;;;;;;;;;;;;;;18.04;72.12;100160.47;5064054;28;20040;-70
2023/07/05 01:26:15;;;;;;;5.10;3.03;;;;;;;17.95;73.01;100173.59;5071148;28;19985;-70
2023/07/05 01:29:09;;;;;;;5.28;2.95;;;;;;;17.86;74.22;100177.16;5040998;28;20025;-70
2023/07/05 01:31:35;;;;;;;4.30;2.85;;;;;;;17.85;74.70;100174.69;5046052;28;20154;-70
2023/07/05 01:34:25;;;;;;;4.03;2.85;;;;;;;17.83;74.71;100174.97;5051500;28;20072;-70
2023/07/05 01:36:51;;;;;;;6.03;3.15;;;;;;;17.75;75.44;100170.13;5050550;28;20480;-70
2023/07/05 01:39:17;;;;;;;4.20;2.85;;;;;;;17.74;75.58;100173.25;5057643;28;20142;-70
2023/07/05 01:41:42;;;;;;;4.18;2.72;;;;;;;17.77;75.63;100176.28;5073957;28;20488;-70
2023/07/05 01:44:10;;;;;;;4.35;2.85;;;;;;;17.80;75.53;100175.66;5069418;28;20396;-70
2023/07/05 01:46:41;;;;;;;5.47;2.63;;;;;;;17.88;75.12;100183.31;5069391;28;20070;-70
2023/07/05 01:49:19;;;;;;;4.90;2.63;;;;;;;17.95;74.46;100188.44;5069829;28;20797;-70
2023/07/05 01:52:08;;;;;;;3.35;2.60;;;;;;;17.95;74.23;100191.25;5050110;28;20033;-71
2023/07/05 01:54:46;;;;;;;3.10;2.33;;;;;;;17.98;74.16;100193.44;5054533;28;20124;-70
2023/07/05 01:57:12;;;;;;;4.15;2.42;;;;;;;17.98;74.02;100199.06;5064908;28;20157;-70
2023/07/05 01:59:45;;;;;;;4.05;2.70;;;;;;;18.01;74.00;100204.03;5061390;28;20484;-70
2023/07/05 02:02:14;;;;;;;4.80;2.30;;;;;;;17.96;73.86;100214.53;5058736;28;20484;-70
2023/07/05 02:04:40;;;;;;;3.92;2.40;;;;;;;17.98;73.62;100231.91;5057575;28;20036;-71
2023/07/05 02:07:06;;;;;;;3.63;2.53;;;;;;;17.99;73.35;100244.81;5057106;28;20036;-70
2023/07/05 02:09:38;;;;;;;3.38;2.30;;;;;;;17.96;71.74;100237.88;5058246;28;20111;-70
2023/07/05 02:12:07;;;;;;;6.90;2.35;;;;;;;17.91;70.27;100240.78;5062025;28;20552;-70
2023/07/05 02:14:32;;;;;;;4.07;2.30;;;;;;;17.89;68.01;100265.53;5061347;28;20051;-70
2023/07/05 02:16:58;;;;;;;3.20;2.03;;;;;;;17.77;67.29;100260.47;5059740;28;20040;-70
2023/07/05 02:19:23;;;;;;;3.63;1.65;;;;;;;17.72;66.71;100268.13;5053184;28;20060;-70
2023/07/05 02:21:50;;;;;;;6.03;2.22;;;;;;;17.74;66.47;100274.28;5066173;28;20046;-71
2023/07/05 02:24:15;;;;;;;4.90;2.33;;;;;;;17.57;65.74;100277.75;5073727;28;20024;-70
2023/07/05 02:26:40;;;;;;;3.55;2.38;;;;;;;17.46;64.70;100276.31;5074939;28;20066;-70
2023/07/05 02:29:06;;;;;;;3.92;2.80;;;;;;;17.44;64.67;100287.81;5073089;28;20475;-70
2023/07/05 02:31:31;;;;;;;4.68;2.72;;;;;;;17.43;65.17;100289.81;5062739;28;20568;-70
2023/07/05 02:33:56;;;;;;;4.20;2.53;;;;;;;17.41;65.17;100305.31;5069137;28;20495;-70
2023/07/05 02:36:22;;;;;;;4.93;2.50;;;;;;;17.38;65.55;100309.56;5056492;28;20067;-70
2023/07/05 02:38:47;;;;;;;3.40;2.42;;;;;;;17.37;65.09;100305.09;5073069;28;20468;-71
2023/07/05 02:41:12;;;;;;;3.95;2.60;;;;;;;17.35;64.73;100310.19;5071999;28;20033;-70
2023/07/05 02:43:38;;;;;;;6.00;2.75;;;;;;;17.31;64.76;100300.72;5073038;28;20557;-70
2023/07/05 02:46:05;;;;;;;5.05;2.88;;;;;;;17.26;64.44;100305.63;5070446;28;20062;-70
2023/07/05 02:48:31;;;;;;;3.92;2.90;;;;;;;17.25;64.73;100315.16;5064835;28;20020;-70
2023/07/05 02:50:56;;;;;;;5.63;3.20;;;;;;;17.22;64.08;100305.41;5071983;28;20461;-70
2023/07/05 02:53:21;;;;;;;4.22;2.90;;;;;;;17.26;64.73;100306.44;5073573;28;20476;-70
2023/07/05 02:55:47;;;;;;;4.07;3.20;;;;;;;17.20;64.62;100304.88;5071899;28;20033;-70
2023/07/05 02:58:12;;;;;;;4.95;2.83;;;;;;;17.25;64.65;100304.78;5073587;28;20016;-71
2023/07/05 03:00:37;;;;;;;4.63;3.10;;;;;;;17.28;64.10;100295.72;5073625;28;20430;-70
2023/07/05 03:03:03;;;;;;;5.60;3.10;;;;;;;17.23;64.13;100293.03;5082133;28;20377;-71
2023/07/05 03:05:28;;;;;;;5.65;2.92;;;;;;;17.17;63.99;100294.25;5078020;28;20028;-71
2023/07/05 03:07:53;;;;;;;3.53;2.75;;;;;;;17.12;63.68;100299.97;5072815;28;20020;-70
2023/07/05 03:10:19;;;;;;;4.80;3.10;;;;;;;17.14;63.92;100308.94;5072288;28;20047;-71
2023/07/05 03:12:44;;;;;;;5.72;3.42;;;;;;;17.10;63.84;100303.13;5072917;28;20468;-70
2023/07/05 03:15:10;;;;;;;4.53;3.35;;;;;;;17.04;63.37;100304.34;5072190;28;20051;-70
2023/07/05 03:17:35;;;;;;;4.80;3.15;;;;;;;17.01;63.67;100302.16;5075643;28;20510;-70
2023/07/05 03:20:01;;;;;;;7.65;3.60;;;;;;;16.98;63.44;100307.53;5092320;28;20379;-71
2023/07/05 03:22:26;;;;;;;11.98;3.63;;;;;;;16.95;63.18;100309.00;5079872;28;20473;-70
2023/07/05 03:24:52;;;;;;;5.30;4.00;;;;;;;16.96;63.28;100291.03;5072543;28;20085;-70
2023/07/05 03:27:18;;;;;;;4.68;3.58;;;;;;;16.96;63.18;100304.22;5071593;28;20124;-70
2023/07/05 03:29:43;;;;;;;5.05;3.65;;;;;;;17.00;63.11;100297.69;5072373;28;20495;-71
2023/07/05 03:32:08;;;;;;;5.70;4.30;;;;;;;16.86;63.16;100306.09;5074972;28;20542;-70
2023/07/05 03:34:34;;;;;;;7.15;4.07;;;;;;;16.93;63.25;100303.69;5092454;28;20028;-70
2023/07/05 03:36:59;;;;;;;6.60;3.72;;;;;;;16.94;63.09;100312.97;5092382;28;20034;-71
2023/07/05 03:39:24;;;;;;;5.00;3.67;;;;;;;16.83;63.27;100305.88;5070533;28;20927;-71
2023/07/05 03:41:50;;;;;;;5.70;3.97;;;;;;;16.83;63.33;100300.28;5072613;28;20032;-70
2023/07/05 03:44:15;;;;;;;5.07;4.30;;;;;;;16.85;63.04;100310.00;5070559;28;20025;-71
2023/07/05 03:46:42;;;;;;;5.97;4.20;;;;;;;16.83;63.30;100311.47;5071692;28;20020;-71
2023/07/05 03:49:08;;;;;;;4.82;4.13;;;;;;;16.81;62.87;100305.34;5072252;28;20025;-71
2023/07/05 03:51:34;;;;;;;5.82;3.83;;;;;;;16.83;63.08;100311.47;5071482;28;20035;-71
2023/07/05 03:53:59;;;;;;;7.03;4.05;;;;;;;16.85;63.22;100309.19;5083301;28;20028;-71
2023/07/05 03:56:27;;;;;;;5.47;4.15;;;;;;;16.80;63.07;100312.09;5068930;28;20476;-70
2023/07/05 03:58:53;;;;;;;5.43;3.67;;;;;;;16.71;63.11;100309.13;5076443;28;20036;-71
2023/07/05 04:01:19;;;;;;;7.03;3.92;;;;;;;16.76;63.38;100299.84;5076270;28;20035;-71
2023/07/05 04:03:46;;;;;;;5.80;3.83;;;;;;;16.75;63.17;100292.56;5052448;28;20056;-71
2023/07/05 04:06:12;;;;;;;6.20;4.60;;;;;;;16.70;63.26;100290.63;5050963;28;20021;-71
2023/07/05 04:08:38;;;;;;;8.32;4.57;;;;;;;16.66;63.30;100287.66;5051853;28;20068;-71
2023/07/05 04:11:04;;;;;;;9.00;4.53;;;;;;;16.58;63.43;100302.34;5092421;28;20476;-70
2023/07/05 04:13:29;;;;;;;5.93;4.22;;;;;;;16.62;63.57;100306.22;5074329;28;20039;-69
2023/07/05 04:16:04;;;;;;;5.72;4.20;;;;;;;16.62;63.76;100303.41;5071451;28;20044;-70
2023/07/05 04:18:31;;;;;;;7.38;4.57;;;;;;;16.64;63.17;100309.53;5070599;28;20025;-71
2023/07/05 04:20:57;;;;;;;7.68;4.65;;;;;;;16.60;63.35;100296.44;5071414;28;20036;-70
2023/07/05 04:23:23;;;;;;;7.50;4.88;;;;;;;16.64;63.31;100292.72;5070571;28;20032;-70
2023/07/05 04:25:48;;;;;;;7.50;4.75;;;;;;;16.60;63.28;100310.44;5091229;28;20020;-70
2023/07/05 04:28:14;;;;;;;8.50;4.72;;;;;;;16.64;63.16;100317.94;5069200;28;20056;-70
2023/07/05 04:30:39;;;;;;;8.82;4.57;;;;;;;16.62;62.83;100297.81;5071878;28;20047;-70
2023/07/05 04:33:04;;;;;;;6.50;4.30;;;;;;;16.56;63.00;100317.81;5070226;28;20020;-70
2023/07/05 04:35:30;;;;;;;7.13;4.88;;;;;;;16.50;63.08;100316.22;5070449;28;20073;-70
2023/07/05 04:37:56;;;;;;;7.63;4.32;;;;;;;16.43;62.97;100309.06;5071584;28;20047;-70
2023/07/05 04:40:21;;;;;;;6.00;4.40;;;;;;;16.44;62.99;100313.50;5088029;28;20035;-70
2023/07/05 04:42:47;;;;;;;7.00;4.88;;;;;;;16.41;62.56;100307.69;5086858;28;20059;-70
2023/07/05 04:45:12;;;;;;;5.28;4.13;;;;;;;16.41;63.16;100319.72;5066912;28;20028;-70
2023/07/05 04:47:38;;;;;;;6.97;4.40;;;;;;;16.48;62.98;100313.72;5070735;28;20025;-70
2023/07/05 04:50:03;;;;;;;7.47;4.70;;;;;;;16.53;62.89;100315.59;5071199;28;20024;-70
2023/07/05 04:52:29;;;;;;;9.55;4.40;;;;;;;16.59;62.85;100303.19;5070083;28;20027;-71
2023/07/05 04:54:54;;;;;;;8.65;4.20;;;;;;;16.54;61.95;100328.47;5069695;28;20433;-70
2023/07/05 04:57:19;;;;;;;4.47;3.55;;;;;;;16.49;61.76;100311.75;5071042;28;20036;-70
2023/07/05 04:59:45;;;;;;;7.90;4.22;;;;;;;16.53;62.11;100315.59;5071300;28;20480;-70
2023/07/05 05:02:10;;;;;;;6.53;4.28;;;;;;;16.53;61.90;100319.25;5061371;28;20123;-70
2023/07/05 05:04:36;;;;;;;7.60;4.10;;;;;;;16.46;62.23;100316.00;5051356;28;20108;-70
2023/07/05 05:07:02;;;;;;;7.28;4.95;;;;;;;16.42;62.04;100315.75;5050952;28;20115;-70
2023/07/05 05:09:28;;;;;;;6.38;4.47;;;;;;;16.38;62.12;100323.13;5050428;28;20465;-70
2023/07/05 05:11:53;;;;;;;10.68;4.28;;;;;;;16.48;61.97;100324.09;5051298;28;20036;-70
2023/07/05 05:14:19;;;;;;;6.93;3.78;;;;;;;16.33;61.80;100314.81;5050786;28;20052;-70
2023/07/05 05:16:44;;;;;;;6.55;4.57;;;;;;;16.29;61.33;100333.34;5075122;28;20487;-70
2023/07/05 05:19:09;;;;;;;7.13;4.13;;;;;;;16.34;61.82;100330.47;5071378;28;20115;-70
2023/07/05 05:21:35;;;;;;;8.50;3.97;;;;;;;16.32;61.39;100331.94;5069876;28;20060;-70
2023/07/05 05:24:00;;;;;;;7.25;3.90;;;;;;;16.35;61.42;100336.94;5057045;28;20029;-70
2023/07/05 05:26:25;;;;;;;6.40;4.18;;;;;;;16.39;61.69;100330.41;5051496;28;20167;-70
2023/07/05 05:28:51;;;;;;;6.55;3.80;;;;;;;16.41;60.95;100333.72;5050272;28;20033;-70
2023/07/05 05:31:16;;;;;;;6.97;4.50;;;;;;;16.35;60.78;100334.94;5050559;28;20029;-71
2023/07/05 05:33:41;;;;;;;6.28;3.83;;;;;;;16.38;60.88;100327.88;5053115;28;20048;-70
2023/07/05 05:36:07;;;;;;;8.68;3.83;;;;;;;16.39;60.79;100330.41;5070360;28;20032;-71
2023/07/05 05:38:34;;;;;;;8.05;4.25;;;;;;;16.28;60.92;100328.91;5091276;28;20101;-70
2023/07/05 05:41:02;;;;;;;7.35;3.95;;;;;;;16.37;61.10;100331.84;5055199;28;20123;-70
2023/07/05 05:43:27;;;;;;;5.63;3.70;;;;;;;16.38;61.10;100334.31;5052387;28;20125;-71
2023/07/05 05:45:52;;;;;;;8.27;3.97;;;;;;;16.37;60.66;100346.66;5054848;28;20366;-70
2023/07/05 05:48:18;;;;;;;5.93;4.05;;;;;;;16.37;60.69;100329.88;5054993;28;20033;-70
2023/07/05 05:50:43;;;;;;;10.23;4.63;;;;;;;16.33;61.01;100344.78;5067903;28;20051;-71
2023/07/05 05:53:12;;;;;;;8.00;3.75;;;;;;;16.33;61.43;100348.41;5094793;28;20039;-70
2023/07/05 05:55:38;;;;;;;5.35;3.80;;;;;;;16.36;61.58;100330.19;5092523;28;20106;-70
2023/07/05 05:58:05;;;;;;;5.40;3.30;;;;;;;16.39;61.65;100346.38;5069614;28;20028;-71
2023/07/05 06:00:31;;;;;;;5.65;3.42;;;;;;;16.38;61.15;100351.13;5073776;28;20032;-70
2023/07/05 06:02:57;;;;;;;5.75;3.45;;;;;;;16.35;61.09;100354.56;5073799;28;20834;-70
2023/07/05 06:05:22;;;;;;;6.60;3.75;;;;;;;16.41;61.28;100364.53;5072704;28;20036;-70
2023/07/05 06:07:48;;;;;;;7.32;3.55;;;;;;;16.41;61.43;100372.94;5074819;28;20028;-71
2023/07/05 06:10:13;;;;;;;4.68;3.38;;;;;;;16.42;61.58;100369.00;5074102;28;20021;-70
2023/07/05 06:12:41;;;;;;;5.20;3.58;;;;;;;16.35;61.73;100376.13;5073351;28;20043;-70
2023/07/05 06:15:11;;;;;;;6.82;3.25;;;;;;;16.36;61.61;100381.44;5067123;28;20048;-70
2023/07/05 06:17:36;;;;;;;5.60;3.53;;;;;;;16.33;61.96;100386.78;5062396;28;20336;-70
2023/07/05 06:20:03;;;;;;;6.60;3.38;;;;;;;16.31;61.89;100383.44;5073221;28;20553;-71
2023/07/05 06:22:29;;;;;;;5.90;3.58;;;;;;;16.28;62.47;100396.09;5065978;28;20082;-70
2023/07/05 06:24:54;;;;;;;8.18;3.03;;;;;;;16.23;62.79;100404.59;5081953;28;20441;-73
2023/07/05 06:27:19;;;;;;;5.63;3.28;;;;;;;16.20;62.85;100399.59;5094062;28;20063;-75
2023/07/05 06:29:45;;;;;;;4.45;2.80;;;;;;;16.24;62.14;100399.81;5087685;28;20128;-74
2023/07/05 06:32:10;;;;;;;4.45;3.05;;;;;;;16.29;62.02;100394.97;5072723;28;20819;-75
2023/07/05 06:34:35;;;;;;;6.70;3.40;;;;;;;16.35;61.68;100402.19;5063993;28;20056;-74
2023/07/05 06:37:01;;;;;;;5.70;2.83;;;;;;;16.44;60.83;100389.13;5079015;28;20147;-75
2023/07/05 06:39:26;;;;;;;7.40;3.15;;;;;;;16.47;60.51;100398.09;5093152;28;20035;-73
2023/07/05 06:41:51;;;;;;;6.25;2.60;;;;;;;16.50;60.54;100405.84;5061184;28;20037;-73
2023/07/05 06:44:16;;;;;;;6.28;2.75;;;;;;;16.54;59.43;100409.72;5060960;28;20029;-74
2023/07/05 06:46:42;;;;;;;6.57;2.63;;;;;;;16.51;59.56;100421.56;5052841;28;20396;-75
2023/07/05 06:49:07;;;;;;;4.05;2.70;;;;;;;16.50;59.26;100414.25;5053706;28;20029;-74
2023/07/05 06:51:32;;;;;;;6.90;2.70;;;;;;;16.42;59.17;100444.63;5055196;28;20041;-75
2023/07/05 06:53:58;;;;;;;10.27;2.92;;;;;;;16.38;59.83;100435.16;5050860;28;20029;-70
2023/07/05 06:56:23;;;;;;;6.20;2.83;;;;;;;16.41;59.67;100430.94;5071632;28;20027;-69
2023/07/05 06:58:49;;;;;;;4.72;2.40;;;;;;;16.43;59.15;100434.28;5068739;28;20044;-71
2023/07/05 07:01:14;;;;;;;8.80;2.60;;;;;;;16.42;59.26;100441.00;5065541;28;20028;-71
2023/07/05 07:03:40;;;;;;;6.05;2.65;;;;;;;16.45;59.14;100418.81;5059912;28;20413;-70
2023/07/05 07:06:05;;;;;;;6.72;2.38;;;;;;;16.63;58.97;100439.56;5080967;28;20545;-71
2023/07/05 07:08:38;;;;;;;4.28;2.22;;;;;;;16.68;58.31;100453.50;5072485;28;20155;-71
2023/07/05 07:11:05;;;;;;;4.38;2.38;;;;;;;16.66;58.17;100471.72;5085016;28;20070;-71
2023/07/05 07:13:31;;;;;;;5.75;2.25;;;;;;;16.68;58.45;100475.06;5092298;28;20022;-71
2023/07/05 07:16:12;;;;;;;3.97;2.05;;;;;;;16.77;58.58;100466.84;5076035;28;20127;-71
2023/07/05 07:18:37;;;;;;;4.50;2.35;;;;;;;16.75;57.91;100463.53;5063533;28;20025;-70
2023/07/05 07:21:08;;;;;;;4.43;2.20;;;;;;;16.76;58.05;100468.00;5070248;28;20043;-70
2023/07/05 07:23:34;;;;;;;5.85;2.30;;;;;;;16.77;59.09;100467.66;5066978;28;20056;-71
2023/07/05 07:26:06;;;;;;;5.75;2.80;;;;;;;16.75;60.75;100499.97;5062131;28;20070;-72
2023/07/05 07:28:31;;;;;;;5.57;2.28;;;;;;;16.73;61.48;100485.38;5065008;28;20452;-70
2023/07/05 07:30:57;;;;;;;4.35;2.50;;;;;;;16.69;62.41;100507.56;5067230;28;20116;-74
2023/07/05 07:33:23;;;;;;;5.90;2.70;;;;;;;16.59;62.49;100519.75;5058982;28;20036;-74
2023/07/05 07:35:49;;;;;;;7.15;2.72;;;;;;;16.57;62.95;100526.78;5065187;28;20056;-66
2023/07/05 07:38:18;;;;;;;6.75;2.47;;;;;;;16.56;63.49;100528.75;5069698;28;20479;-72
2023/07/05 07:40:43;;;;;;;5.05;2.42;;;;;;;16.47;63.88;100524.16;5067818;28;20048;-77
2023/07/05 07:43:08;;;;;;;7.03;2.67;;;;;;;16.39;63.46;100532.06;5059012;28;20043;-72
2023/07/05 07:45:34;;;;;;;8.18;3.10;;;;;;;16.31;63.79;100552.34;5052398;28;20102;-73
2023/07/05 07:48:00;;;;;;;6.70;2.72;;;;;;;16.29;63.77;100546.19;5056164;28;20032;-73
2023/07/05 07:50:26;;;;;;;7.55;2.97;;;;;;;16.19;63.85;100549.13;5073833;28;20031;-72
2023/07/05 07:52:52;;;;;;;6.43;2.80;;;;;;;16.14;64.18;100543.59;5089863;28;20036;-73
2023/07/05 07:55:18;;;;;;;9.80;2.65;;;;;;;16.10;65.47;100554.53;5075851;28;20116;-74
2023/07/05 07:57:43;;;;;;;6.85;2.55;;;;;;;16.19;65.28;100568.72;5066387;28;20139;-74
2023/07/05 08:00:10;;;;;;;9.68;2.63;;;;;;;16.19;65.39;100560.31;5061930;28;20052;-74
2023/07/05 08:02:38;;;;;;;5.15;2.78;;;;;;;16.12;65.84;100560.69;5063360;28;20035;-69
2023/07/05 08:05:13;;;;;;;5.75;2.90;;;;;;;16.16;66.08;100555.34;5063952;28;20032;-71
2023/07/05 08:07:38;;;;;;;3.20;2.60;;;;;;;16.12;66.11;100557.88;5067572;28;20020;-70
2023/07/05 08:10:04;;;;;;;6.22;2.58;;;;;;;16.10;66.09;100564.91;5058369;28;21535;-71
2023/07/05 08:12:29;;;;;;;5.43;2.60;;;;;;;16.15;66.21;100554.50;5059522;28;20028;-73
2023/07/05 08:14:55;;;;;;;9.18;3.00;;;;;;;16.14;66.18;100565.97;5058176;28;20396;-74
2023/07/05 08:17:21;;;;;;;7.03;2.50;;;;;;;16.19;65.39;100555.56;5053830;28;20025;-76
2023/07/05 08:19:47;;;;;;;4.10;2.40;;;;;;;16.32;65.54;100564.38;5057434;28;20040;-75
2023/07/05 08:22:12;;;;;;;4.18;2.53;;;;;;;16.34;65.58;100582.53;5056531;28;20037;-74
2023/07/05 08:24:37;;;;;;;5.32;2.97;;;;;;;16.41;65.51;100577.41;5052366;28;20357;-75
2023/07/05 08:27:03;;;;;;;4.22;2.67;;;;;;;16.50;64.65;100573.94;5052635;28;20068;-72
2023/07/05 08:29:28;;;;;;;6.30;3.20;;;;;;;16.50;64.33;100577.59;5051898;28;20021;-72
2023/07/05 08:31:53;;;;;;;5.47;2.90;;;;;;;16.61;64.56;100589.50;5062136;28;20039;-72
2023/07/05 08:34:19;;;;;;;6.35;2.88;;;;;;;16.69;64.58;100623.28;5054380;28;20040;-74
2023/07/05 08:36:46;;;;;;;6.00;3.47;;;;;;;16.77;63.14;100593.78;5063293;28;20041;-71
2023/07/05 08:39:12;;;;;;;8.75;3.80;;;;;;;16.93;63.49;100603.66;5062321;28;20086;-72
2023/07/05 08:41:44;;;;;;;4.53;3.13;;;;;;;17.02;63.88;100614.22;5076215;28;20091;-71
2023/07/05 08:44:24;;;;;;;5.53;3.10;;;;;;;17.05;62.79;100611.63;5064452;28;20036;-73
2023/07/05 08:47:14;;;;;;;8.75;3.10;;;;;;;17.07;63.16;100612.16;5050335;28;20108;-73
2023/07/05 08:50:01;;;;;;;5.63;2.70;;;;;;;17.27;63.29;100619.44;5068164;28;20067;-71
2023/07/05 08:52:33;;;;;;;6.32;3.33;;;;;;;17.38;62.31;100618.16;5068051;28;20499;-73
2023/07/05 08:55:03;;;;;;;7.70;3.83;;;;;;;17.44;63.04;100635.72;5061225;28;20027;-69
2023/07/05 08:57:33;;;;;;;5.00;3.35;;;;;;;17.58;62.36;100635.81;5058497;28;20031;-70
2023/07/05 09:00:04;;;;;;;7.13;3.10;;;;;;;17.68;61.63;100624.41;5059726;28;20069;-70
2023/07/05 09:02:30;;;;;;;7.90;3.25;;;;;;;17.74;60.75;100633.59;5057529;28;20036;-70
2023/07/05 09:04:58;;;;;;;6.15;3.25;;;;;;;17.79;60.63;100628.72;5063600;28;20696;-69
2023/07/05 09:07:41;;;;;;;7.53;3.13;;;;;;;17.90;60.83;100649.88;5058393;28;20033;-69
2023/07/05 09:10:18;;;;;;;6.95;3.45;;;;;;;17.90;59.49;100649.88;5050214;28;20024;-72
2023/07/05 09:13:02;;;;;;;8.90;3.33;;;;;;;18.00;59.79;100676.97;5055181;28;20782;-73
2023/07/05 09:15:34;;;;;;;6.13;3.17;;;;;;;18.00;59.09;100662.94;5067327;28;20049;-70
2023/07/05 09:18:10;;;;;;;9.38;3.25;;;;;;;17.96;57.99;100678.72;5058257;28;20039;-71
2023/07/05 09:20:59;;;;;;;9.77;2.95;;;;;;;17.86;57.93;100665.69;5063720;28;20040;-71
2023/07/05 09:23:32;;;;;;;6.53;3.03;;;;;;;17.89;57.16;100676.31;5065119;28;20400;-71
2023/07/05 09:26:05;;;;;;;5.85;3.00;;;;;;;17.95;57.70;100673.41;5075476;28;20070;-72
2023/07/05 09:28:47;;;;;;;10.18;3.38;;;;;;;18.08;58.25;100695.09;5054249;28;20037;-70
2023/07/05 09:31:14;;;;;;;10.10;3.15;;;;;;;18.15;57.03;100690.72;5070252;28;20039;-69
2023/07/05 09:33:46;;;;;;;7.88;3.00;;;;;;;18.24;55.99;100695.66;5069887;28;20048;-69
2023/07/05 09:36:21;;;;;;;7.38;3.03;;;;;;;18.32;55.80;100686.50;5069853;28;20031;-69
2023/07/05 09:38:52;;;;;;;9.63;2.88;;;;;;;18.36;56.20;100702.44;5069997;28;20427;-67
2023/07/05 09:41:30;;;;;;;8.40;2.80;;;;;;;18.41;54.80;100707.13;5069279;28;20040;-69
2023/07/05 09:43:55;;;;;;;8.80;2.42;;;;;;;18.45;53.45;100716.59;5070562;28;20181;-69
2023/07/05 09:46:28;;;;;;;7.05;2.17;;;;;;;18.53;53.89;100709.44;5072132;28;20531;-69
2023/07/05 09:48:55;;;;;;;4.63;2.33;;;;;;;18.62;53.83;100742.13;5067325;28;20063;-71
2023/07/05 09:51:22;;;;;;;8.20;2.50;;;;;;;18.72;52.10;100737.50;5068400;28;20035;-70
2023/07/05 09:53:56;;;;;;;4.75;1.90;;;;;;;18.70;52.12;100737.81;5071792;28;20365;-70
2023/07/05 09:56:29;;;;;;;6.70;2.47;;;;;;;18.72;51.31;100732.72;5064168;28;20020;-69
2023/07/05 09:59:15;;;;;;;5.05;1.90;;;;;;;18.78;51.55;100736.25;5050819;28;20036;-70
2023/07/05 10:01:45;;;;;;;5.57;2.08;;;;;;;18.74;51.18;100752.91;5049452;28;20127;-69
2023/07/05 10:04:11;;;;;;;6.63;2.70;;;;;;;18.82;50.52;100752.22;5061605;28;20025;-72
2023/07/05 10:06:39;;;;;;;5.93;1.88;;;;;;;18.85;50.67;100760.00;5060170;28;20029;-72
2023/07/05 10:09:23;;;;;;;5.40;1.88;;;;;;;18.95;50.89;100749.72;5056177;28;20032;-72
2023/07/05 10:11:54;;;;;;;3.38;1.63;;;;;;;18.91;49.43;100780.44;5063303;28;20442;-70
2023/07/05 10:14:27;;;;;;;7.18;2.03;;;;;;;18.97;49.38;100758.66;5052506;28;20074;-69
2023/07/05 10:17:19;;;;;;;5.68;2.00;;;;;;;19.12;50.67;100775.22;5052529;28;20107;-69
2023/07/05 10:19:52;;;;;;;5.72;1.73;;;;;;;19.15;49.39;100766.19;5058582;28;20565;-70
2023/07/05 10:22:30;;;;;;;4.22;1.80;;;;;;;19.16;48.95;100783.88;5069470;28;20044;-71
2023/07/05 10:25:13;;;;;;;7.30;2.10;;;;;;;19.19;49.63;100792.53;5069070;28;20476;-70
2023/07/05 10:27:43;;;;;;;5.13;1.75;;;;;;;19.23;48.87;100793.56;5069459;28;20028;-72
2023/07/05 10:30:13;;;;;;;4.88;1.45;;;;;;;19.29;47.73;100802.72;5063884;28;20029;-71
2023/07/05 10:32:40;;;;;;;2.60;1.50;;;;;;;19.32;48.10;100802.13;5064883;28;20028;-70
2023/07/05 10:35:26;;;;;;;4.47;1.77;;;;;;;19.41;49.84;100810.66;5073198;28;20044;-71
2023/07/05 10:37:53;;;;;;;4.60;1.73;;;;;;;19.42;49.03;100807.53;5077726;28;20379;-71
2023/07/05 10:40:21;;;;;;;3.90;1.85;;;;;;;19.45;48.30;100811.69;5070719;28;20025;-72
2023/07/05 10:42:51;;;;;;;4.90;1.70;;;;;;;19.42;48.16;100812.34;5052952;28;20052;-72
2023/07/05 10:45:20;;;;;;;6.93;2.00;;;;;;;19.49;48.05;100815.53;5058832;28;20062;-74
2023/07/05 10:47:51;;;;;;;5.30;1.50;;;;;;;19.58;48.78;100822.13;5063872;28;20113;-73
2023/07/05 10:50:23;;;;;;;7.75;1.90;;;;;;;19.60;46.71;100840.34;5052497;28;20036;-68
2023/07/05 10:52:56;;;;;;;8.90;2.60;;;;;;;19.74;51.19;100819.84;5061846;28;20048;-75
2023/07/05 10:55:51;;;;;;;3.42;1.88;;;;;;;19.70;48.07;100819.63;5056936;28;20487;-75
2023/07/05 10:58:20;;;;;;;21.02;12.10;;;;;;;19.93;51.91;100834.63;5052550;28;20053;-75
2023/07/05 11:00:54;;;;;;;13.07;5.03;;;;;;;20.06;50.09;100838.53;5069906;28;20539;-76
2023/07/05 11:03:26;;;;;;;9.43;3.55;;;;;;;20.00;45.73;100851.06;5067659;28;20036;-74
2023/07/05 11:05:56;;;;;;;11.45;3.53;;;;;;;20.14;47.01;100818.06;5053626;28;20082;-72
2023/07/05 11:08:35;;;;;;;20.15;7.50;;;;;;;20.30;47.66;100827.81;5054192;28;20035;-76
2023/07/05 11:11:10;;;;;;;18.30;6.03;;;;;;;20.34;47.41;100836.47;5062090;28;20091;-73
2023/07/05 11:13:36;;;;;;;9.75;3.22;;;;;;;20.33;46.62;100858.19;5066433;28;20028;-75
2023/07/05 11:16:03;;;;;;;7.38;2.05;;;;;;;20.35;45.35;100853.03;5072162;28;20056;-74
2023/07/05 11:18:28;;;;;;;8.10;2.03;;;;;;;20.40;44.85;100854.09;5061881;28;20025;-73
2023/07/05 11:20:56;;;;;;;9.73;1.90;;;;;;;20.38;43.87;100878.94;5051421;28;20102;-73
2023/07/05 11:23:43;;;;;;;7.57;3.00;;;;;;;20.51;47.00;100864.81;5064491;28;20026;-73
2023/07/05 11:26:10;;;;;;;6.03;2.55;;;;;;;20.52;45.65;100866.50;5060501;28;20029;-73
2023/07/05 11:28:40;;;;;;;7.40;1.98;;;;;;;20.58;47.13;100870.84;5060478;28;20116;-73
2023/07/05 11:31:29;;;;;;;6.60;2.30;;;;;;;20.56;46.12;100870.34;5056621;28;20123;-74